createdAt,value
2018-01-11T00:00:28.633Z,95.96
2018-01-11T00:02:56.110Z,96.02
2018-01-11T00:05:23.592Z,96.02
2018-01-11T00:07:51.067Z,96.08
2018-01-11T00:10:18.512Z,96.30
2018-01-11T00:12:46.020Z,96.50
2018-01-11T00:15:13.476Z,96.45
2018-01-11T00:17:40.982Z,96.59
2018-01-11T00:20:08.490Z,96.75
2018-01-11T00:22:35.985Z,96.75
2018-01-11T00:25:03.484Z,96.85
2018-01-11T00:27:30.972Z,97.10
2018-01-11T00:29:58.448Z,97.21
2018-01-11T00:32:25.900Z,97.31
2018-01-11T00:34:53.359Z,97.38
2018-01-11T00:37:20.813Z,97.64
2018-01-11T00:39:48.283Z,97.68
2018-01-11T00:42:15.816Z,97.74
2018-01-11T00:44:43.285Z,97.73
2018-01-11T00:47:10.765Z,97.58
2018-01-11T00:49:38.226Z,97.53
2018-01-11T00:52:05.680Z,97.64
2018-01-11T00:54:33.148Z,97.75
2018-01-11T00:57:00.600Z,97.75
2018-01-11T00:59:28.147Z,97.82
2018-01-11T01:01:55.615Z,97.90
2018-01-11T01:04:23.063Z,97.92
2018-01-11T01:06:50.572Z,97.95
2018-01-11T01:09:18.013Z,97.99
2018-01-11T01:11:45.526Z,98.07
2018-01-11T01:14:13.014Z,98.12
2018-01-11T01:16:40.630Z,98.19
2018-01-11T01:19:08.090Z,98.24
2018-01-11T01:21:35.553Z,98.16
2018-01-11T01:24:03.028Z,98.13
2018-01-11T01:26:30.486Z,98.08
2018-01-11T01:28:57.953Z,98.02
2018-01-11T01:31:25.440Z,97.93
2018-01-11T01:33:52.908Z,97.74
2018-01-11T01:36:20.363Z,97.61
2018-01-11T01:38:47.853Z,97.50
2018-01-11T01:41:15.313Z,97.24
2018-01-11T01:43:42.807Z,96.89
2018-01-11T01:46:10.266Z,96.41
2018-01-11T01:48:43.554Z,96.19
2018-01-11T01:51:11.016Z,96.15
2018-01-11T01:53:38.479Z,95.92
2018-01-11T01:56:05.941Z,95.50
2018-01-11T01:58:33.431Z,95.36
2018-01-11T02:01:00.908Z,95.35
2018-01-11T02:03:28.366Z,95.16
2018-01-11T02:05:55.835Z,95.01
2018-01-11T02:08:23.302Z,95.00
2018-01-11T02:10:50.772Z,95.05
2018-01-11T02:13:18.244Z,94.95
2018-01-11T02:15:45.709Z,94.71
2018-01-11T02:18:13.175Z,94.22
2018-01-11T02:20:40.687Z,93.78
2018-01-11T02:23:08.148Z,93.40
2018-01-11T02:25:35.635Z,93.30
2018-01-11T02:28:03.083Z,93.27
2018-01-11T02:30:30.586Z,93.34
2018-01-11T02:32:58.052Z,93.31
2018-01-11T02:35:25.510Z,93.51
2018-01-11T02:37:53.001Z,93.66
2018-01-11T02:40:20.453Z,93.79
2018-01-11T02:42:47.909Z,93.48
2018-01-11T02:45:15.396Z,93.18
2018-01-11T02:47:42.859Z,93.25
2018-01-11T02:50:10.338Z,93.46
2018-01-11T02:52:37.804Z,93.42
2018-01-11T02:55:05.257Z,93.58
2018-01-11T02:57:32.765Z,93.49
2018-01-11T03:00:00.217Z,93.50
2018-01-11T03:02:27.674Z,93.49
2018-01-11T03:04:55.132Z,93.78
2018-01-11T03:07:22.607Z,93.98
2018-01-11T03:09:50.116Z,93.96
2018-01-11T03:12:17.569Z,93.95
2018-01-11T03:14:45.016Z,93.84
2018-01-11T03:17:12.488Z,93.57
2018-01-11T03:19:39.941Z,93.23
2018-01-11T03:22:07.403Z,93.19
2018-01-11T03:24:34.871Z,93.19
2018-01-11T03:27:02.364Z,93.21
2018-01-11T03:29:29.823Z,93.18
2018-01-11T03:31:57.332Z,93.06
2018-01-11T03:34:24.789Z,93.17
2018-01-11T03:36:52.277Z,93.43
2018-01-11T03:39:19.736Z,93.65
2018-01-11T03:41:47.218Z,93.73
2018-01-11T03:44:14.745Z,93.89
2018-01-11T03:46:42.194Z,94.02
2018-01-11T03:49:09.660Z,93.92
2018-01-11T03:51:37.153Z,93.55
2018-01-11T03:54:04.601Z,93.46
2018-01-11T03:56:32.061Z,93.44
2018-01-11T03:58:59.595Z,93.42
2018-01-11T04:01:27.048Z,93.29
2018-01-11T04:03:55.426Z,93.32
2018-01-11T04:06:23.176Z,93.07
2018-01-11T04:08:50.689Z,93.04
2018-01-11T04:11:18.136Z,93.07
2018-01-11T04:13:45.810Z,93.27
2018-01-11T04:16:13.265Z,93.31
2018-01-11T04:18:40.793Z,93.29
2018-01-11T04:21:08.282Z,93.21
2018-01-11T04:23:35.789Z,93.18
2018-01-11T04:26:03.314Z,92.99
2018-01-11T04:28:30.762Z,92.99
2018-01-11T04:30:58.262Z,93.20
2018-01-11T04:33:25.730Z,93.28
2018-01-11T04:35:53.304Z,93.46
2018-01-11T04:38:20.782Z,93.13
2018-01-11T04:40:48.242Z,92.90
2018-01-11T04:43:15.703Z,92.89
2018-01-11T04:45:43.157Z,92.89
2018-01-11T04:48:10.660Z,93.01
2018-01-11T04:50:38.131Z,93.02
2018-01-11T04:53:05.604Z,92.96
2018-01-11T04:55:33.088Z,92.68
2018-01-11T04:58:00.544Z,92.52
2018-01-11T05:00:28.014Z,92.39
2018-01-11T05:02:55.514Z,92.57
2018-01-11T05:05:22.997Z,92.54
2018-01-11T05:07:50.451Z,92.50
2018-01-11T05:10:17.954Z,92.47
2018-01-11T05:12:45.424Z,92.10
2018-01-11T05:15:12.883Z,92.11
2018-01-11T05:17:40.361Z,92.23
2018-01-11T05:20:07.808Z,92.31
2018-01-11T05:22:35.259Z,92.46
2018-01-11T05:25:02.815Z,92.51
2018-01-11T05:27:30.271Z,92.22
2018-01-11T05:29:57.740Z,92.16
2018-01-11T05:32:25.218Z,92.12
2018-01-11T05:34:52.701Z,92.13
2018-01-11T05:37:20.159Z,92.16
2018-01-11T05:39:47.626Z,92.31
2018-01-11T05:42:15.129Z,92.58
2018-01-11T05:44:42.603Z,92.75
2018-01-11T05:47:10.063Z,92.77
2018-01-11T05:49:37.542Z,92.85
2018-01-11T05:52:05.008Z,92.92
2018-01-11T05:54:32.479Z,92.96
2018-01-11T05:56:59.918Z,92.87
2018-01-11T05:59:27.378Z,93.06
2018-01-11T06:01:54.928Z,93.25
2018-01-11T06:04:22.510Z,93.50
2018-01-11T06:06:49.951Z,93.50
2018-01-11T06:09:17.399Z,93.37
2018-01-11T06:11:44.903Z,93.39
2018-01-11T06:14:12.375Z,93.20
2018-01-11T06:16:39.838Z,92.98
2018-01-11T06:19:07.339Z,93.07
2018-01-11T06:21:34.860Z,92.89
2018-01-11T06:24:02.350Z,93.04
2018-01-11T06:26:29.810Z,93.03
2018-01-11T06:28:57.358Z,92.33
2018-01-11T06:31:24.887Z,91.62
2018-01-11T06:33:52.385Z,89.42
2018-01-11T06:36:19.858Z,89.69
2018-01-11T06:38:47.349Z,88.60
2018-01-11T06:41:14.814Z,87.84
2018-01-11T06:43:42.272Z,86.95
2018-01-11T06:46:09.734Z,86.43
2018-01-11T06:48:37.185Z,86.41
2018-01-11T06:51:04.643Z,85.94
2018-01-11T06:53:32.108Z,84.69
2018-01-11T06:55:59.623Z,84.43
2018-01-11T06:58:27.095Z,83.62
2018-01-11T07:00:54.697Z,84.44
2018-01-11T07:03:22.193Z,84.70
2018-01-11T07:08:23.472Z,84.14
2018-01-11T07:10:50.987Z,84.28
2018-01-11T07:13:18.595Z,84.15
2018-01-11T07:15:46.093Z,83.95
2018-01-11T07:18:13.599Z,84.64
2018-01-11T07:20:42.028Z,84.42
2018-01-11T07:23:09.840Z,84.27
2018-01-11T07:25:37.375Z,84.31
2018-01-11T07:28:04.942Z,84.54
2018-01-11T07:30:32.508Z,84.15
2018-01-11T07:32:59.955Z,84.81
2018-01-11T07:35:27.488Z,84.43
2018-01-11T07:37:55.007Z,84.05
2018-01-11T07:40:22.751Z,83.93
2018-01-11T07:42:50.213Z,84.15
2018-01-11T07:45:17.854Z,83.91
2018-01-11T07:47:45.356Z,83.28
2018-01-11T07:50:12.827Z,82.61
2018-01-11T07:52:40.280Z,82.02
2018-01-11T07:55:07.744Z,81.85
2018-01-11T07:57:35.242Z,81.92
2018-01-11T08:00:02.750Z,81.90
2018-01-11T08:02:30.756Z,80.92
2018-01-11T08:04:58.238Z,81.18
2018-01-11T08:07:25.716Z,81.59
2018-01-11T08:09:53.230Z,81.68
2018-01-11T08:12:20.768Z,82.27
2018-01-11T08:14:48.171Z,81.85
2018-01-11T08:17:15.674Z,82.23
2018-01-11T08:19:43.179Z,81.43
2018-01-11T08:22:10.739Z,82.02
2018-01-11T08:24:38.231Z,82.30
2018-01-11T08:27:05.698Z,83.05
2018-01-11T08:29:33.159Z,83.55
2018-01-11T08:32:00.688Z,83.52
2018-01-11T08:34:28.150Z,83.20
2018-01-11T08:36:55.614Z,83.05
2018-01-11T08:39:23.072Z,83.57
2018-01-11T08:41:50.536Z,83.38
2018-01-11T08:44:18.031Z,82.60
2018-01-11T08:46:45.501Z,83.11
2018-01-11T08:49:12.976Z,83.23
2018-01-11T08:51:40.584Z,83.40
2018-01-11T08:54:08.107Z,83.07
2018-01-11T08:56:35.780Z,82.91
2018-01-11T08:59:03.262Z,83.46
2018-01-11T09:01:30.740Z,83.00
2018-01-11T09:03:58.527Z,82.65
2018-01-11T09:06:26.298Z,82.04
2018-01-11T09:08:53.836Z,82.09
2018-01-11T09:11:21.366Z,81.55
2018-01-11T09:13:48.841Z,80.98
2018-01-11T09:16:16.407Z,80.06
2018-01-11T09:18:44.153Z,82.08
2018-01-11T09:21:11.610Z,83.41
2018-01-11T09:23:39.107Z,84.14
2018-01-11T09:26:06.598Z,83.65
2018-01-11T09:28:34.154Z,83.70
2018-01-11T09:31:01.707Z,83.32
2018-01-11T09:33:29.184Z,83.47
2018-01-11T09:35:56.717Z,83.73
2018-01-11T09:38:24.164Z,83.71
2018-01-11T09:40:51.641Z,83.70
2018-01-11T09:43:19.184Z,83.89
2018-01-11T09:45:46.663Z,83.98
2018-01-11T09:48:14.274Z,83.19
2018-01-11T09:50:41.757Z,83.11
2018-01-11T09:53:09.301Z,82.40
2018-01-11T09:55:36.830Z,82.15
2018-01-11T09:58:04.358Z,81.01
2018-01-11T10:00:31.868Z,79.93
2018-01-11T10:02:59.416Z,79.10
2018-01-11T10:05:27.130Z,78.89
2018-01-11T10:07:54.600Z,77.98
2018-01-11T10:10:22.087Z,76.13
2018-01-11T10:12:49.572Z,73.12
2018-01-11T10:15:17.204Z,72.37
2018-01-11T10:17:44.712Z,71.07
2018-01-11T10:20:12.197Z,71.51
2018-01-11T10:22:39.703Z,71.36
2018-01-11T10:25:07.159Z,70.43
2018-01-11T10:27:34.645Z,70.32
2018-01-11T10:30:02.151Z,70.38
2018-01-11T10:32:29.609Z,70.17
2018-01-11T10:34:57.087Z,70.98
2018-01-11T10:37:24.580Z,70.46
2018-01-11T10:39:52.102Z,70.34
2018-01-11T10:42:19.575Z,70.12
2018-01-11T10:44:47.047Z,69.58
2018-01-11T10:47:14.556Z,70.22
2018-01-11T10:49:42.048Z,69.74
2018-01-11T10:52:09.678Z,69.39
2018-01-11T10:54:37.268Z,69.63
2018-01-11T10:57:04.746Z,68.21
2018-01-11T10:59:32.205Z,68.76
2018-01-11T11:05:01.860Z,67.95
2018-01-11T11:07:29.339Z,67.99
2018-01-11T11:09:56.806Z,67.99
2018-01-11T11:12:24.335Z,68.67
2018-01-11T11:14:51.818Z,68.11
2018-01-11T11:17:19.478Z,68.61
2018-01-11T11:19:46.936Z,68.92
2018-01-11T11:22:14.604Z,68.01
2018-01-11T11:24:42.145Z,68.25
2018-01-11T11:27:09.605Z,67.30
2018-01-11T11:29:37.135Z,67.63
2018-01-11T11:32:04.587Z,67.54
2018-01-11T11:34:32.224Z,67.90
2018-01-11T11:36:59.811Z,66.66
2018-01-11T11:39:27.295Z,66.31
2018-01-11T11:41:54.786Z,66.37
2018-01-11T11:44:22.270Z,66.59
2018-01-11T11:46:49.766Z,68.12
2018-01-11T11:49:17.259Z,68.49
2018-01-11T11:51:44.699Z,69.00
2018-01-11T11:54:12.156Z,69.20
2018-01-11T11:56:39.696Z,70.35
2018-01-11T11:59:07.196Z,70.77
2018-01-11T12:01:34.692Z,72.11
2018-01-11T12:04:02.175Z,72.79
2018-01-11T12:06:29.634Z,73.40
2018-01-11T12:08:57.095Z,72.71
2018-01-11T12:11:24.592Z,72.42
2018-01-11T12:13:52.076Z,72.86
2018-01-11T12:16:19.561Z,73.19
2018-01-11T12:18:47.247Z,73.94
2018-01-11T12:21:15.441Z,74.17
2018-01-11T12:23:42.935Z,73.57
2018-01-11T12:26:10.398Z,73.82
2018-01-11T12:28:37.867Z,74.82
2018-01-11T12:31:05.333Z,75.87
2018-01-11T12:33:32.806Z,76.64
2018-01-11T12:36:00.288Z,76.96
2018-01-11T12:38:27.783Z,77.41
2018-01-11T12:40:55.265Z,77.53
2018-01-11T12:43:22.752Z,77.15
2018-01-11T12:45:50.262Z,77.62
2018-01-11T12:48:17.743Z,78.09
2018-01-11T12:50:45.206Z,77.49
2018-01-11T12:53:12.679Z,78.03
2018-01-11T12:55:40.233Z,77.60
2018-01-11T12:58:07.705Z,77.58
2018-01-11T13:00:35.211Z,77.45
2018-01-11T13:03:02.731Z,77.32
2018-01-11T13:05:30.204Z,77.16
2018-01-11T13:07:57.779Z,77.40
2018-01-11T13:10:25.352Z,77.55
2018-01-11T13:12:52.888Z,77.38
2018-01-11T13:15:20.367Z,77.45
2018-01-11T13:17:47.890Z,77.50
2018-01-11T13:20:15.637Z,77.56
2018-01-11T13:22:43.219Z,77.30
2018-01-11T13:25:10.849Z,77.46
2018-01-11T13:27:38.566Z,77.14
2018-01-11T13:30:06.094Z,76.81
2018-01-11T13:32:34.061Z,76.88
2018-01-11T13:35:03.255Z,76.88
2018-01-11T13:37:31.274Z,76.90
2018-01-11T13:39:58.904Z,76.75
2018-01-11T13:42:29.561Z,77.34
2018-01-11T13:44:57.121Z,76.98
2018-01-11T13:47:24.655Z,77.70
2018-01-11T13:49:52.134Z,77.42
2018-01-11T13:52:19.728Z,77.48
2018-01-11T13:54:48.319Z,77.45
2018-01-11T13:57:15.925Z,77.62
2018-01-11T13:59:43.505Z,77.62
2018-01-11T14:02:11.067Z,77.75
2018-01-11T14:04:38.609Z,78.40
2018-01-11T14:07:06.106Z,78.60
2018-01-11T14:09:33.647Z,79.03
2018-01-11T14:12:01.445Z,79.23
2018-01-11T14:14:29.572Z,78.94
2018-01-11T14:16:57.084Z,79.42
2018-01-11T14:19:24.596Z,79.86
2018-01-11T14:21:52.062Z,79.39
2018-01-11T14:24:19.603Z,79.78
2018-01-11T14:26:47.102Z,80.23
2018-01-11T14:29:14.614Z,80.33
2018-01-11T14:31:42.168Z,80.17
2018-01-11T14:34:09.684Z,79.70
2018-01-11T14:36:37.256Z,79.64
2018-01-11T14:39:05.377Z,79.98
2018-01-11T14:41:32.877Z,80.33
2018-01-11T14:44:00.475Z,80.62
2018-01-11T14:46:27.931Z,80.90
2018-01-11T14:48:55.464Z,80.53
2018-01-11T14:51:22.951Z,80.84
2018-01-11T14:53:50.465Z,81.06
2018-01-11T14:56:17.958Z,80.91
2018-01-11T14:58:45.504Z,80.69
2018-01-11T15:01:12.982Z,81.17
2018-01-11T15:03:40.460Z,81.23
2018-01-11T15:06:08.025Z,81.35
2018-01-11T15:08:35.588Z,79.96
2018-01-11T15:11:03.136Z,80.05
2018-01-11T15:13:30.646Z,80.08
2018-01-11T15:15:58.126Z,80.52
2018-01-11T15:18:25.717Z,80.78
2018-01-11T15:20:53.347Z,80.74
2018-01-11T15:23:20.811Z,80.49
2018-01-11T15:25:48.459Z,80.51
2018-01-11T15:28:17.009Z,80.41
2018-01-11T15:30:44.482Z,80.14
2018-01-11T15:33:11.974Z,80.69
2018-01-11T15:35:39.479Z,81.11
2018-01-11T15:38:06.955Z,81.17
2018-01-11T15:40:34.616Z,81.04
2018-01-11T15:43:02.115Z,81.48
2018-01-11T15:45:29.584Z,81.44
2018-01-11T15:47:57.091Z,81.39
2018-01-11T15:50:24.582Z,81.68
2018-01-11T15:52:52.050Z,81.51
2018-01-11T15:55:19.618Z,81.15
2018-01-11T15:57:47.079Z,81.07
2018-01-11T16:00:14.535Z,80.65
2018-01-11T16:02:42.032Z,79.43
2018-01-11T16:05:09.502Z,79.58
2018-01-11T16:07:36.984Z,79.67
2018-01-11T16:10:04.527Z,79.39
2018-01-11T16:12:32.002Z,78.82
2018-01-11T16:14:59.483Z,79.31
2018-01-11T16:17:27.012Z,78.87
2018-01-11T16:19:54.488Z,79.36
2018-01-11T16:22:21.975Z,79.38
2018-01-11T16:24:49.982Z,79.79
2018-01-11T16:27:17.712Z,79.93
2018-01-11T16:29:45.310Z,79.72
2018-01-11T16:32:12.779Z,80.68
2018-01-11T16:34:40.277Z,81.00
2018-01-11T16:37:07.752Z,81.13
2018-01-11T16:39:35.268Z,81.33
2018-01-11T16:42:02.804Z,81.61
2018-01-11T16:44:30.533Z,81.36
2018-01-11T16:46:58.082Z,81.29
2018-01-11T16:49:25.608Z,80.67
2018-01-11T16:51:53.108Z,81.30
2018-01-11T16:54:20.621Z,80.64
2018-01-11T16:56:48.087Z,80.67
2018-01-11T16:59:15.557Z,80.84
2018-01-11T17:01:43.178Z,80.80
2018-01-11T17:04:10.676Z,80.98
2018-01-11T17:06:38.159Z,80.58
2018-01-11T17:09:05.656Z,80.60
2018-01-11T17:11:33.177Z,79.23
2018-01-11T17:14:00.631Z,79.74
2018-01-11T17:16:28.164Z,79.49
2018-01-11T17:18:55.656Z,79.73
2018-01-11T17:21:23.109Z,79.99
2018-01-11T17:23:50.596Z,79.84
2018-01-11T17:26:18.323Z,80.02
2018-01-11T17:28:46.957Z,79.95
2018-01-11T17:31:14.504Z,79.73
2018-01-11T17:33:41.958Z,80.11
2018-01-11T17:36:09.647Z,80.71
2018-01-11T17:38:41.087Z,80.35
2018-01-11T17:41:08.563Z,79.99
2018-01-11T17:43:36.078Z,80.05
2018-01-11T17:46:03.616Z,79.85
2018-01-11T17:48:31.449Z,80.01
2018-01-11T17:50:58.986Z,80.13
2018-01-11T17:53:26.466Z,80.14
2018-01-11T17:55:54.000Z,79.88
2018-01-11T17:58:21.508Z,80.69
2018-01-11T18:00:49.293Z,80.54
2018-01-11T18:03:19.501Z,80.60
2018-01-11T18:05:47.015Z,80.41
2018-01-11T18:08:14.677Z,80.58
2018-01-11T18:10:44.076Z,80.82
2018-01-11T18:13:11.653Z,81.18
2018-01-11T18:15:39.194Z,81.31
2018-01-11T18:18:06.743Z,81.16
2018-01-11T18:20:34.235Z,81.26
2018-01-11T18:23:04.686Z,81.28
2018-01-11T18:25:32.205Z,80.89
2018-01-11T18:27:59.760Z,81.07
2018-01-11T18:30:27.446Z,81.31
2018-01-11T18:32:54.975Z,80.90
2018-01-11T18:35:22.552Z,81.30
2018-01-11T18:37:50.213Z,81.07
2018-01-11T18:40:18.410Z,81.20
2018-01-11T18:42:46.036Z,80.89
2018-01-11T18:45:13.597Z,81.16
2018-01-11T18:47:41.058Z,80.88
2018-01-11T18:50:08.584Z,80.92
2018-01-11T18:52:36.066Z,81.30
2018-01-11T18:55:03.599Z,81.43
2018-01-11T18:57:31.108Z,80.91
2018-01-11T18:59:58.570Z,81.37
2018-01-11T19:02:26.031Z,81.18
2018-01-11T19:04:53.503Z,81.22
2018-01-11T19:07:21.015Z,81.57
2018-01-11T19:09:48.489Z,81.31
2018-01-11T19:12:15.979Z,81.16
2018-01-11T19:14:43.509Z,81.27
2018-01-11T19:17:11.119Z,81.22
2018-01-11T19:19:38.613Z,80.99
2018-01-11T19:22:06.109Z,80.64
2018-01-11T19:24:33.586Z,80.99
2018-01-11T19:27:01.143Z,80.68
2018-01-11T19:29:32.255Z,80.74
2018-01-11T19:31:59.753Z,80.86
2018-01-11T19:34:27.230Z,81.36
2018-01-11T19:36:54.720Z,80.71
2018-01-11T19:39:22.192Z,80.38
2018-01-11T19:41:49.692Z,80.83
2018-01-11T19:44:17.270Z,80.52
2018-01-11T19:46:44.744Z,80.92
2018-01-11T19:49:12.242Z,80.85
2018-01-11T19:51:39.777Z,80.93
2018-01-11T19:54:07.254Z,81.10
2018-01-11T19:56:35.480Z,80.78
2018-01-11T19:59:02.991Z,81.13
2018-01-11T20:01:30.524Z,81.53
2018-01-11T20:03:58.052Z,81.84
2018-01-11T20:06:25.541Z,81.83
2018-01-11T20:08:53.023Z,81.62
2018-01-11T20:11:20.524Z,81.68
2018-01-11T20:13:47.996Z,81.29
2018-01-11T20:16:16.493Z,80.92
2018-01-11T20:18:44.421Z,80.62
2018-01-11T20:21:11.961Z,80.81
2018-01-11T20:23:39.446Z,80.90
2018-01-11T20:26:07.062Z,81.23
2018-01-11T20:28:34.600Z,81.18
2018-01-11T20:31:02.100Z,80.29
2018-01-11T20:33:29.635Z,79.96
2018-01-11T20:35:57.228Z,79.89
2018-01-11T20:38:24.804Z,80.13
2018-01-11T20:40:52.291Z,80.42
2018-01-11T20:43:19.876Z,80.13
2018-01-11T20:45:47.401Z,79.57
2018-01-11T20:48:14.927Z,79.88
2018-01-11T20:50:42.458Z,80.26
2018-01-11T20:53:10.046Z,80.10
2018-01-11T20:55:37.551Z,80.39
2018-01-11T20:58:05.208Z,80.38
2018-01-11T21:00:32.851Z,80.20
2018-01-11T21:03:00.321Z,79.82
2018-01-11T21:05:27.803Z,80.02
2018-01-11T21:07:55.288Z,79.96
2018-01-11T21:10:22.747Z,80.15
2018-01-11T21:12:50.241Z,80.53
2018-01-11T21:15:18.286Z,80.49
2018-01-11T21:17:45.747Z,80.70
2018-01-11T21:20:13.243Z,81.26
2018-01-11T21:22:40.756Z,80.92
2018-01-11T21:25:08.249Z,80.72
2018-01-11T21:27:35.742Z,81.28
2018-01-11T21:30:03.368Z,81.52
2018-01-11T21:32:30.878Z,81.63
2018-01-11T21:34:58.428Z,81.68
2018-01-11T21:37:25.907Z,81.81
2018-01-11T21:39:53.360Z,82.30
2018-01-11T21:42:20.877Z,81.90
2018-01-11T21:44:48.369Z,82.18
2018-01-11T21:47:19.205Z,81.96
2018-01-11T21:49:47.198Z,82.33
2018-01-11T21:52:16.334Z,82.34
2018-01-11T21:54:47.776Z,81.94
2018-01-11T21:57:19.113Z,81.40
2018-01-11T21:59:49.259Z,81.39
2018-01-11T22:02:17.252Z,81.34
2018-01-11T22:04:44.910Z,81.20
2018-01-11T22:07:16.454Z,81.30
2018-01-11T22:22:39.257Z,81.99
2018-01-11T22:25:06.779Z,82.12
2018-01-11T22:27:35.323Z,82.23
2018-01-11T22:30:03.018Z,82.26
2018-01-11T22:32:30.542Z,82.37
2018-01-11T22:35:01.858Z,82.44
2018-01-11T22:37:30.261Z,82.54
2018-01-11T22:40:04.806Z,82.84
2018-01-11T22:42:35.726Z,82.93
2018-01-11T22:45:03.251Z,83.30
2018-01-11T22:47:31.180Z,83.83
2018-01-11T22:49:58.949Z,83.68
2018-01-11T22:52:26.695Z,83.09
2018-01-11T22:55:02.777Z,83.13
2018-01-11T22:57:31.325Z,83.32
2018-01-11T23:00:00.688Z,83.45
2018-01-11T23:02:31.886Z,83.41
2018-01-11T23:05:00.744Z,83.51
2018-01-11T23:07:28.271Z,83.50
2018-01-11T23:09:58.712Z,83.18
2018-01-11T23:12:26.895Z,83.15
2018-01-11T23:14:54.437Z,83.44
2018-01-11T23:17:21.879Z,83.27
2018-01-11T23:19:49.339Z,83.22
2018-01-11T23:22:16.845Z,83.31
2018-01-11T23:24:44.376Z,83.60
2018-01-11T23:27:12.062Z,83.56
2018-01-11T23:29:39.523Z,83.34
2018-01-11T23:32:07.046Z,83.26
2018-01-11T23:34:35.407Z,83.38
2018-01-11T23:37:02.925Z,83.68
2018-01-11T23:39:30.391Z,83.59
2018-01-11T23:41:58.043Z,83.56
2018-01-11T23:44:25.564Z,83.63
2018-01-11T23:46:53.137Z,83.44
2018-01-11T23:49:20.618Z,83.29
2018-01-11T23:51:48.087Z,83.42
2018-01-11T23:54:15.707Z,83.46
2018-01-11T23:56:43.200Z,83.26
2018-01-11T23:59:10.655Z,83.58
